Time;durP1;ratioP1;P1;durP2;ratioP2;P2;SDS_P1;SDS_P2;PMS_P1;PMS_P2;Temp;Humidity;BMP_temperature;BMP_pressure;BME280_temperature;BME280_humidity;BME280_pressure;Samples;Min_cycle;Max_cycle;Signal;HPM_P1;HPM_P2
2023/12/06 00:01:28;;;;;;;15.50;11.95;;;5.30;79.00;;;;;;5013210;28;20037;-76
2023/12/06 00:03:54;;;;;;;15.45;11.20;;;5.40;79.10;;;;;;5016473;28;20034;-77
2023/12/06 00:06:20;;;;;;;16.77;11.80;;;5.40;79.10;;;;;;4996411;28;20120;-76
2023/12/06 00:08:46;;;;;;;16.15;11.48;;;5.30;79.00;;;;;;5022507;28;20120;-76
2023/12/06 00:11:12;;;;;;;16.35;11.77;;;5.30;79.00;;;;;;5012970;28;20113;-76
2023/12/06 00:13:37;;;;;;;16.52;10.95;;;5.30;79.00;;;;;;5006155;28;20452;-75
2023/12/06 00:16:03;;;;;;;14.80;10.82;;;5.40;79.00;;;;;;5012590;28;20100;-76
2023/12/06 00:18:29;;;;;;;15.63;10.88;;;5.30;79.00;;;;;;5011513;28;20382;-76
2023/12/06 00:20:55;;;;;;;14.98;10.75;;;5.30;79.00;;;;;;4995490;28;21370;-76
2023/12/06 00:23:21;;;;;;;15.05;10.75;;;5.30;79.00;;;;;;5029624;28;20049;-76
2023/12/06 00:25:47;;;;;;;14.02;10.65;;;5.30;79.00;;;;;;5012701;28;20125;-76
2023/12/06 00:28:13;;;;;;;15.48;11.27;;;5.30;79.00;;;;;;5019762;28;20117;-75
2023/12/06 00:30:38;;;;;;;15.02;11.25;;;5.30;79.00;;;;;;5025019;28;20386;-76
2023/12/06 00:33:06;;;;;;;15.30;11.57;;;5.30;79.00;;;;;;5005725;28;20088;-75
2023/12/06 00:35:31;;;;;;;15.40;11.73;;;5.30;79.00;;;;;;5009481;28;20033;-77
2023/12/06 00:37:57;;;;;;;15.10;10.73;;;5.30;79.00;;;;;;5012599;28;20043;-75
2023/12/06 00:40:23;;;;;;;15.27;11.10;;;5.30;79.00;;;;;;5013894;28;20544;-76
2023/12/06 00:42:48;;;;;;;14.02;10.68;;;5.30;79.00;;;;;;5030148;28;20030;-77
2023/12/06 00:45:14;;;;;;;16.10;11.38;;;5.30;79.00;;;;;;5010623;28;20501;-76
2023/12/06 00:47:40;;;;;;;14.32;10.82;;;5.30;79.00;;;;;;5010955;28;20072;-75
2023/12/06 00:50:06;;;;;;;13.90;10.60;;;5.30;79.00;;;;;;5000453;28;20038;-76
2023/12/06 00:52:32;;;;;;;13.88;9.82;;;5.30;79.00;;;;;;5015278;28;20037;-76
2023/12/06 00:54:58;;;;;;;14.00;10.38;;;5.30;79.00;;;;;;5009791;28;20029;-76
2023/12/06 00:57:23;;;;;;;13.48;10.48;;;5.30;79.00;;;;;;5023808;28;20045;-76
2023/12/06 00:59:49;;;;;;;14.32;10.52;;;5.30;79.00;;;;;;5015495;28;20037;-76
2023/12/06 01:02:15;;;;;;;13.90;10.82;;;5.30;79.00;;;;;;5035592;28;20120;-76
2023/12/06 01:04:41;;;;;;;13.98;10.18;;;5.30;79.00;;;;;;4998679;28;20486;-76
2023/12/06 01:07:06;;;;;;;13.75;10.18;;;5.30;79.00;;;;;;5006278;28;20505;-76
2023/12/06 01:09:32;;;;;;;13.75;10.35;;;5.30;79.00;;;;;;5015247;28;20052;-76
2023/12/06 01:11:58;;;;;;;13.57;10.20;;;5.30;79.00;;;;;;5011057;28;20068;-76
2023/12/06 01:14:24;;;;;;;13.90;10.40;;;5.30;79.00;;;;;;5052708;28;20030;-76
2023/12/06 01:16:50;;;;;;;13.00;9.73;;;5.30;79.00;;;;;;5012425;28;20034;-76
2023/12/06 01:19:16;;;;;;;13.88;10.70;;;5.20;79.00;;;;;;5028544;28;20046;-76
2023/12/06 01:21:43;;;;;;;13.85;10.32;;;5.30;79.00;;;;;;4996515;28;20398;-76
2023/12/06 01:24:09;;;;;;;13.45;10.48;;;5.30;79.00;;;;;;5020167;28;20206;-76
2023/12/06 01:26:34;;;;;;;15.70;11.13;;;5.30;79.00;;;;;;5009978;28;20057;-78
2023/12/06 01:29:04;;;;;;;14.23;10.35;;;5.20;78.90;;;;;;5019386;28;20044;-76
2023/12/06 01:31:30;;;;;;;13.27;10.18;;;5.30;79.00;;;;;;5012689;28;20073;-77
2023/12/06 01:33:57;;;;;;;13.73;9.60;;;5.30;79.00;;;;;;5008053;28;20057;-76
2023/12/06 01:36:22;;;;;;;12.60;10.15;;;5.30;79.00;;;;;;5009356;28;20541;-76
2023/12/06 01:38:48;;;;;;;14.05;10.70;;;5.20;78.90;;;;;;5030930;28;20041;-77
2023/12/06 01:41:14;;;;;;;13.13;9.82;;;5.30;79.00;;;;;;5023484;28;20025;-76
2023/12/06 01:43:43;;;;;;;16.45;11.43;;;5.30;79.00;;;;;;5023580;28;20112;-78
2023/12/06 01:46:10;;;;;;;15.50;11.20;;;5.30;79.00;;;;;;5023108;28;20037;-76
2023/12/06 01:48:37;;;;;;;12.35;9.65;;;5.30;79.00;;;;;;5015158;28;20037;-76
2023/12/06 01:51:04;;;;;;;13.68;10.30;;;5.30;79.00;;;;;;5012124;28;20066;-77
2023/12/06 01:53:33;;;;;;;13.02;10.25;;;5.30;79.00;;;;;;5022675;28;20022;-76
2023/12/06 01:56:00;;;;;;;15.15;11.00;;;5.30;79.00;;;;;;5012025;28;20057;-76
2023/12/06 01:58:29;;;;;;;13.10;10.00;;;5.30;79.10;;;;;;4998937;28;20038;-76
2023/12/06 02:00:57;;;;;;;13.68;9.70;;;5.30;79.10;;;;;;5003733;28;20049;-76
2023/12/06 02:03:23;;;;;;;13.93;10.48;;;5.30;79.00;;;;;;5014429;28;20041;-76
2023/12/06 02:05:49;;;;;;;12.90;10.10;;;5.30;79.00;;;;;;5011428;28;20076;-76
2023/12/06 02:08:16;;;;;;;13.20;10.25;;;5.30;79.00;;;;;;5022962;28;20124;-76
2023/12/06 02:10:42;;;;;;;13.25;10.10;;;5.30;79.00;;;;;;4996273;28;20778;-76
2023/12/06 02:13:08;;;;;;;13.38;9.65;;;5.30;79.00;;;;;;5021978;28;20092;-76
2023/12/06 02:15:34;;;;;;;12.60;9.70;;;5.30;79.00;;;;;;5017562;28;20485;-76
2023/12/06 02:18:04;;;;;;;12.85;9.45;;;5.30;79.00;;;;;;5012225;28;20033;-76
2023/12/06 02:20:33;;;;;;;13.05;10.27;;;5.30;79.00;;;;;;5012494;28;20026;-76
2023/12/06 02:23:00;;;;;;;12.48;9.60;;;5.30;79.00;;;;;;5029816;28;20421;-76
2023/12/06 02:25:26;;;;;;;13.13;10.15;;;5.30;79.00;;;;;;5040660;28;20034;-76
2023/12/06 02:27:52;;;;;;;13.32;9.80;;;5.30;79.00;;;;;;5009502;28;20037;-76
2023/12/06 02:30:17;;;;;;;12.80;10.20;;;5.30;79.00;;;;;;5014499;28;20025;-75
2023/12/06 02:32:43;;;;;;;14.05;10.07;;;5.30;78.90;;;;;;5013229;28;20037;-77
2023/12/06 02:35:27;;;;;;;13.20;9.57;;;5.30;79.00;;;;;;5013422;28;20052;-75
2023/12/06 02:37:57;;;;;;;13.73;10.38;;;5.30;79.00;;;;;;5020181;28;20053;-76
2023/12/06 02:40:25;;;;;;;13.25;10.23;;;5.30;79.00;;;;;;5031863;28;20360;-76
2023/12/06 02:42:51;;;;;;;13.77;9.88;;;5.30;79.00;;;;;;5054091;28;20038;-76
2023/12/06 02:45:17;;;;;;;13.00;9.38;;;5.30;78.90;;;;;;5029680;28;20118;-76
2023/12/06 02:47:43;;;;;;;12.88;9.85;;;5.30;79.00;;;;;;5022400;28;20034;-76
2023/12/06 02:50:09;;;;;;;12.63;9.02;;;5.30;79.00;;;;;;5028679;28;20035;-76
2023/12/06 02:52:34;;;;;;;12.73;9.68;;;5.30;79.00;;;;;;5015078;28;20087;-76
2023/12/06 02:55:00;;;;;;;13.95;9.73;;;5.30;78.90;;;;;;5001546;28;20026;-77
2023/12/06 02:57:26;;;;;;;13.30;9.77;;;5.30;78.90;;;;;;5019104;28;20057;-76
2023/12/06 02:59:51;;;;;;;12.80;9.70;;;5.30;79.00;;;;;;5001750;28;20049;-76
2023/12/06 03:02:17;;;;;;;11.93;9.18;;;5.30;79.00;;;;;;5009181;28;20024;-77
2023/12/06 03:04:43;;;;;;;13.93;10.30;;;5.30;79.00;;;;;;5009977;28;20033;-76
2023/12/06 03:07:09;;;;;;;12.50;9.52;;;5.30;78.90;;;;;;5015185;28;20033;-76
2023/12/06 03:09:35;;;;;;;13.43;9.80;;;5.30;78.90;;;;;;5007851;28;20080;-76
2023/12/06 03:12:01;;;;;;;12.95;9.75;;;5.30;78.90;;;;;;5035137;28;20026;-77
2023/12/06 03:14:26;;;;;;;13.20;9.95;;;5.40;79.00;;;;;;5011926;28;20030;-76
2023/12/06 03:16:52;;;;;;;14.45;9.63;;;5.30;78.90;;;;;;5011094;28;20505;-76
2023/12/06 03:19:18;;;;;;;13.50;9.90;;;5.40;79.60;;;;;;5010197;28;20406;-76
2023/12/06 03:21:43;;;;;;;13.23;9.27;;;5.30;78.90;;;;;;5025705;28;20033;-76
2023/12/06 03:24:09;;;;;;;12.15;9.15;;;5.40;79.00;;;;;;5024498;28;20029;-76
2023/12/06 03:26:35;;;;;;;12.93;9.93;;;5.40;79.00;;;;;;5029657;28;20298;-76
2023/12/06 03:29:01;;;;;;;12.95;9.23;;;5.40;79.00;;;;;;5006909;28;20133;-77
2023/12/06 03:31:26;;;;;;;13.10;9.90;;;5.40;79.00;;;;;;5038679;28;20022;-76
2023/12/06 03:33:52;;;;;;;13.80;10.23;;;5.40;78.90;;;;;;5026967;28;20031;-76
2023/12/06 03:36:18;;;;;;;13.35;9.88;;;5.40;78.90;;;;;;5027982;28;20037;-77
2023/12/06 03:38:44;;;;;;;12.60;9.25;;;5.40;78.90;;;;;;5014496;28;20133;-77
2023/12/06 03:41:10;;;;;;;12.40;9.43;;;5.40;79.00;;;;;;5011448;28;20432;-76
2023/12/06 03:43:36;;;;;;;12.23;8.82;;;5.40;79.00;;;;;;5013391;28;20428;-76
2023/12/06 03:46:02;;;;;;;12.10;9.27;;;5.40;78.90;;;;;;5012034;28;20117;-77
2023/12/06 03:48:30;;;;;;;12.23;9.30;;;5.40;79.00;;;;;;5010399;28;20039;-76
2023/12/06 03:50:56;;;;;;;12.23;9.25;;;5.40;78.90;;;;;;5012195;28;20128;-76
2023/12/06 03:53:23;;;;;;;12.57;9.70;;;5.40;79.00;;;;;;4996840;28;20556;-76
2023/12/06 03:55:49;;;;;;;11.95;9.20;;;5.50;79.00;;;;;;5042050;28;20530;-76
2023/12/06 03:58:15;;;;;;;12.05;9.25;;;5.40;78.90;;;;;;5027685;28;20038;-76
2023/12/06 04:00:41;;;;;;;12.23;8.98;;;5.50;79.00;;;;;;5006138;28;20037;-76
2023/12/06 04:03:07;;;;;;;10.95;8.63;;;5.40;78.90;;;;;;5039763;28;20124;-76
2023/12/06 04:05:33;;;;;;;12.88;9.57;;;5.50;79.00;;;;;;5014500;28;20547;-76
2023/12/06 04:07:59;;;;;;;12.52;9.10;;;5.40;78.90;;;;;;5007370;28;20087;-76
2023/12/06 04:10:24;;;;;;;13.32;9.50;;;5.40;78.90;;;;;;5028248;28;20109;-77
2023/12/06 04:12:51;;;;;;;10.48;8.20;;;5.50;79.00;;;;;;5005398;28;20100;-76
2023/12/06 04:15:17;;;;;;;11.30;8.43;;;5.50;79.00;;;;;;5014576;28;20032;-77
2023/12/06 04:17:43;;;;;;;12.93;9.05;;;5.50;79.00;;;;;;5001008;28;20038;-76
2023/12/06 04:20:09;;;;;;;12.13;9.10;;;5.50;79.00;;;;;;5013587;28;20481;-76
2023/12/06 04:22:35;;;;;;;11.77;8.63;;;5.50;79.00;;;;;;5031929;28;20218;-76
2023/12/06 04:25:02;;;;;;;12.93;8.80;;;5.50;79.00;;;;;;5010568;28;20025;-75
2023/12/06 04:27:31;;;;;;;12.20;9.07;;;5.50;79.00;;;;;;5016671;28;20025;-76
2023/12/06 04:29:56;;;;;;;11.38;8.73;;;5.50;79.00;;;;;;5009883;28;20037;-76
2023/12/06 04:32:22;;;;;;;12.18;9.23;;;5.50;79.00;;;;;;5018339;28;20030;-76
2023/12/06 04:34:55;;;;;;;12.10;8.45;;;5.50;78.90;;;;;;4999141;28;20033;-76
2023/12/06 04:37:22;;;;;;;11.18;8.57;;;5.50;79.00;;;;;;5024435;28;20069;-76
2023/12/06 04:39:48;;;;;;;10.90;8.63;;;5.50;79.00;;;;;;5015419;28;20061;-76
2023/12/06 04:42:14;;;;;;;11.30;9.02;;;5.50;78.90;;;;;;4995370;28;20061;-76
2023/12/06 04:44:40;;;;;;;10.48;7.90;;;5.50;78.90;;;;;;4999045;28;20107;-77
2023/12/06 04:47:06;;;;;;;10.55;7.93;;;5.50;78.90;;;;;;5015802;28;20033;-77
2023/12/06 04:49:35;;;;;;;11.40;8.48;;;5.50;78.90;;;;;;5016365;28;20057;-77
2023/12/06 04:52:01;;;;;;;11.63;8.20;;;5.50;78.90;;;;;;5015315;28;20029;-76
2023/12/06 04:54:27;;;;;;;11.18;8.30;;;5.60;79.00;;;;;;5014361;28;20056;-75
2023/12/06 04:56:53;;;;;;;11.88;8.60;;;5.50;78.90;;;;;;5005217;28;20081;-76
2023/12/06 04:59:19;;;;;;;10.38;7.93;;;5.60;79.00;;;;;;5011424;28;20041;-76
2023/12/06 05:01:45;;;;;;;9.80;7.55;;;5.50;78.90;;;;;;5021731;28;20475;-77
2023/12/06 05:04:10;;;;;;;10.60;7.95;;;5.60;79.00;;;;;;5037634;28;20032;-76
2023/12/06 05:06:37;;;;;;;10.40;8.25;;;5.60;79.00;;;;;;4997789;28;20058;-76
2023/12/06 05:09:10;;;;;;;10.52;8.13;;;5.60;79.00;;;;;;5009070;28;20041;-76
2023/12/06 05:11:36;;;;;;;10.23;7.55;;;5.60;79.00;;;;;;5023222;28;20034;-76
2023/12/06 05:14:02;;;;;;;11.13;8.10;;;5.60;79.00;;;;;;5003842;28;20080;-75
2023/12/06 05:16:28;;;;;;;11.00;7.90;;;5.60;79.00;;;;;;5005992;28;20043;-76
2023/12/06 05:18:54;;;;;;;10.73;7.95;;;5.60;79.00;;;;;;5001216;28;20045;-76
2023/12/06 05:21:20;;;;;;;9.70;7.50;;;5.60;78.90;;;;;;5014757;28;20030;-76
2023/12/06 05:23:46;;;;;;;9.15;7.25;;;5.60;78.90;;;;;;5023784;28;20128;-76
2023/12/06 05:26:11;;;;;;;10.65;8.02;;;5.60;78.90;;;;;;5025058;28;20033;-77
2023/12/06 05:28:37;;;;;;;10.10;7.63;;;5.60;78.90;;;;;;5023448;28;20116;-76
2023/12/06 05:31:04;;;;;;;11.35;8.23;;;5.60;78.90;;;;;;5026144;28;20041;-77
2023/12/06 05:33:29;;;;;;;9.82;7.60;;;5.60;79.00;;;;;;5005576;28;20056;-75
2023/12/06 05:35:55;;;;;;;9.77;7.78;;;5.70;79.00;;;;;;5011842;28;20030;-76
2023/12/06 05:38:22;;;;;;;10.32;7.57;;;5.70;79.00;;;;;;5029390;28;20038;-75
2023/12/06 05:40:49;;;;;;;9.63;7.32;;;5.60;78.90;;;;;;5022619;28;20026;-76
2023/12/06 05:43:15;;;;;;;10.35;7.43;;;5.70;79.00;;;;;;5028790;28;20025;-76
2023/12/06 05:45:41;;;;;;;9.23;6.97;;;5.70;78.90;;;;;;5013614;28;20036;-76
2023/12/06 05:48:07;;;;;;;9.57;7.32;;;5.70;78.90;;;;;;5023568;28;20485;-76
2023/12/06 05:50:36;;;;;;;9.80;7.22;;;5.70;78.90;;;;;;5024770;28;20038;-76
2023/12/06 05:53:03;;;;;;;10.05;7.65;;;5.70;79.00;;;;;;5010095;28;20394;-75
2023/12/06 05:55:29;;;;;;;9.75;7.20;;;5.70;79.00;;;;;;5054826;28;20053;-75
2023/12/06 05:57:55;;;;;;;9.38;7.00;;;5.70;79.00;;;;;;5029157;28;20380;-75
2023/12/06 06:00:22;;;;;;;9.80;7.30;;;5.70;79.00;;;;;;5026625;28;20123;-75
2023/12/06 06:02:48;;;;;;;9.77;7.55;;;5.70;78.90;;;;;;5030998;28;20029;-75
2023/12/06 06:05:13;;;;;;;9.30;7.32;;;5.70;78.90;;;;;;5009237;28;20030;-76
2023/12/06 06:07:39;;;;;;;9.30;7.07;;;5.70;79.00;;;;;;5009758;28;20036;-75
2023/12/06 06:10:07;;;;;;;9.85;7.55;;;5.70;78.90;;;;;;5037996;28;20112;-75
2023/12/06 06:12:34;;;;;;;9.13;7.00;;;5.70;79.00;;;;;;5014455;28;20096;-76
2023/12/06 06:15:00;;;;;;;8.32;6.95;;;5.70;79.00;;;;;;5021822;28;20095;-75
2023/12/06 06:17:26;;;;;;;8.65;6.85;;;5.80;79.00;;;;;;4997460;28;20049;-76
2023/12/06 06:19:52;;;;;;;8.55;7.15;;;5.70;79.00;;;;;;5020955;28;20478;-75
2023/12/06 06:22:18;;;;;;;9.65;7.32;;;5.80;79.00;;;;;;5024863;28;20029;-75
2023/12/06 06:24:44;;;;;;;7.93;6.38;;;5.80;78.50;;;;;;5026738;28;20033;-75
2023/12/06 06:27:10;;;;;;;8.75;6.88;;;5.80;79.00;;;;;;5013121;28;20490;-76
2023/12/06 06:29:37;;;;;;;9.00;6.63;;;5.80;79.00;;;;;;4998661;28;20116;-75
2023/12/06 06:32:06;;;;;;;7.68;6.28;;;5.80;79.00;;;;;;5008511;28;20026;-76
2023/12/06 06:34:32;;;;;;;8.80;6.93;;;5.80;79.00;;;;;;5014607;28;20123;-76
2023/12/06 06:36:58;;;;;;;8.73;6.60;;;5.80;79.00;;;;;;5003367;28;20033;-75
2023/12/06 06:39:24;;;;;;;9.15;6.85;;;5.80;79.00;;;;;;5020599;28;20048;-76
2023/12/06 06:41:49;;;;;;;8.38;6.68;;;5.80;79.00;;;;;;5009082;28;20026;-75
2023/12/06 06:44:15;;;;;;;8.50;6.43;;;5.80;79.00;;;;;;5012971;28;20037;-76
2023/12/06 06:46:41;;;;;;;8.65;6.82;;;5.80;79.00;;;;;;5009450;28;20026;-76
2023/12/06 06:49:07;;;;;;;8.65;6.35;;;5.80;78.90;;;;;;5014297;28;20033;-76
2023/12/06 06:51:36;;;;;;;7.90;6.22;;;5.80;79.00;;;;;;4996964;28;20116;-76
2023/12/06 06:54:03;;;;;;;9.05;6.55;;;5.80;79.00;;;;;;5021521;28;20473;-75
2023/12/06 06:56:28;;;;;;;8.98;6.78;;;5.80;79.00;;;;;;5012180;28;20045;-76
2023/12/06 06:58:54;;;;;;;8.77;7.00;;;5.90;79.00;;;;;;5004676;28;20397;-76
2023/12/06 07:01:20;;;;;;;8.13;6.10;;;5.90;79.00;;;;;;5008367;28;20128;-75
2023/12/06 07:03:46;;;;;;;7.90;5.80;;;5.80;79.00;;;;;;5005409;28;20042;-76
2023/12/06 07:06:12;;;;;;;7.47;6.18;;;5.90;79.00;;;;;;5020782;28;20026;-76
2023/12/06 07:08:38;;;;;;;8.35;6.40;;;5.90;79.00;;;;;;5029413;28;20038;-75
2023/12/06 07:11:07;;;;;;;7.97;6.45;;;5.90;79.00;;;;;;5022957;28;21814;-75
2023/12/06 07:13:35;;;;;;;7.57;5.85;;;5.90;79.00;;;;;;4990837;28;20037;-76
2023/12/06 07:16:00;;;;;;;7.18;5.43;;;5.90;79.00;;;;;;5021012;28;20056;-75
2023/12/06 07:18:27;;;;;;;8.68;6.43;;;5.90;79.00;;;;;;5022532;28;20073;-75
2023/12/06 07:20:53;;;;;;;7.40;6.10;;;5.90;79.00;;;;;;5029756;28;20056;-76
2023/12/06 07:23:19;;;;;;;7.43;5.95;;;5.90;79.00;;;;;;5020446;28;20513;-76
2023/12/06 07:25:46;;;;;;;8.15;6.20;;;5.90;79.00;;;;;;5016448;28;20061;-75
2023/12/06 07:28:13;;;;;;;8.05;6.38;;;5.90;79.00;;;;;;5029128;28;20092;-75
2023/12/06 07:30:40;;;;;;;7.70;5.93;;;5.90;79.00;;;;;;5026665;28;20021;-75
2023/12/06 07:33:07;;;;;;;7.68;5.97;;;5.90;79.00;;;;;;5020110;28;20038;-76
2023/12/06 07:35:34;;;;;;;8.32;6.43;;;5.90;79.00;;;;;;5010067;28;20037;-77
2023/12/06 07:38:01;;;;;;;8.23;5.63;;;5.90;79.00;;;;;;5004844;28;20583;-75
2023/12/06 07:40:27;;;;;;;7.65;6.15;;;5.90;79.00;;;;;;5024264;28;20493;-75
2023/12/06 07:42:53;;;;;;;8.10;6.53;;;5.90;79.00;;;;;;5004253;28;20505;-76
2023/12/06 07:45:19;;;;;;;8.43;6.25;;;5.90;79.00;;;;;;5013089;28;20116;-76
2023/12/06 07:47:45;;;;;;;7.95;6.05;;;5.90;79.00;;;;;;5010540;28;20033;-75
2023/12/06 07:50:10;;;;;;;8.80;6.95;;;5.90;79.00;;;;;;5015582;28;20036;-76
2023/12/06 07:52:37;;;;;;;7.88;6.13;;;6.00;79.00;;;;;;5021740;28;20069;-76
2023/12/06 07:55:06;;;;;;;7.45;6.13;;;6.00;79.00;;;;;;5015594;28;20041;-75
2023/12/06 07:57:33;;;;;;;7.63;5.60;;;6.00;79.00;;;;;;5026641;28;20508;-76
2023/12/06 07:59:59;;;;;;;7.65;5.80;;;6.00;79.00;;;;;;5010787;28;20025;-75
2023/12/06 08:02:25;;;;;;;8.15;5.82;;;6.00;79.00;;;;;;5011626;28;20029;-76
2023/12/06 08:04:51;;;;;;;7.13;5.28;;;6.00;79.10;;;;;;5031672;28;20037;-76
2023/12/06 08:07:17;;;;;;;7.53;6.22;;;6.00;79.00;;;;;;5000192;28;20389;-76
2023/12/06 08:09:44;;;;;;;8.30;6.22;;;6.00;79.00;;;;;;5026472;28;20451;-75
2023/12/06 08:12:10;;;;;;;7.50;5.40;;;6.00;79.00;;;;;;5039078;28;20044;-75
2023/12/06 08:14:39;;;;;;;7.55;5.82;;;6.00;79.00;;;;;;5008466;28;20475;-75
2023/12/06 08:17:05;;;;;;;7.75;6.13;;;6.00;79.00;;;;;;5019408;28;20351;-75
2023/12/06 08:19:31;;;;;;;7.15;5.68;;;6.00;79.00;;;;;;5031434;28;20041;-75
2023/12/06 08:21:57;;;;;;;7.82;5.97;;;6.10;79.10;;;;;;5007718;28;20034;-75
2023/12/06 08:24:23;;;;;;;7.78;6.20;;;6.00;79.00;;;;;;5030262;28;21507;-76
2023/12/06 08:26:49;;;;;;;7.97;6.20;;;6.00;79.00;;;;;;5022672;28;20025;-75
2023/12/06 08:29:15;;;;;;;7.82;5.80;;;6.10;79.10;;;;;;5034569;28;20489;-76
2023/12/06 08:31:40;;;;;;;7.40;5.68;;;6.10;79.10;;;;;;5011213;28;20040;-75
2023/12/06 08:34:07;;;;;;;8.40;6.53;;;6.10;79.00;;;;;;5000178;28;20040;-75
2023/12/06 08:36:32;;;;;;;7.18;5.40;;;6.10;79.10;;;;;;5029168;28;20029;-77
2023/12/06 08:38:58;;;;;;;7.32;5.75;;;6.10;79.10;;;;;;5015768;28;20501;-75
2023/12/06 08:41:24;;;;;;;7.72;5.82;;;6.10;79.10;;;;;;5015460;28;20021;-75
2023/12/06 08:43:50;;;;;;;6.95;5.32;;;6.10;79.10;;;;;;5041078;28;20029;-76
2023/12/06 08:46:15;;;;;;;6.95;5.68;;;6.10;79.10;;;;;;4995034;28;20468;-76
2023/12/06 08:48:41;;;;;;;6.95;5.75;;;6.10;79.10;;;;;;5026658;28;20344;-75
2023/12/06 08:51:08;;;;;;;7.43;6.00;;;6.10;79.10;;;;;;5016759;28;20032;-75
2023/12/06 08:53:35;;;;;;;8.25;6.47;;;6.10;79.10;;;;;;5026384;28;20084;-76
2023/12/06 08:56:01;;;;;;;7.68;5.63;;;6.20;79.10;;;;;;5007542;28;20057;-75
2023/12/06 08:58:27;;;;;;;6.68;5.00;;;6.20;79.10;;;;;;5014778;28;20373;-76
2023/12/06 09:00:53;;;;;;;7.47;5.82;;;6.20;79.10;;;;;;5006902;28;20038;-74
2023/12/06 09:03:19;;;;;;;8.10;5.85;;;6.20;79.10;;;;;;5022411;28;20034;-75
2023/12/06 09:05:45;;;;;;;8.00;6.22;;;6.20;79.10;;;;;;5013434;28;20041;-75
2023/12/06 09:08:11;;;;;;;6.95;5.32;;;6.20;79.10;;;;;;5001456;28;20378;-75
2023/12/06 09:10:38;;;;;;;7.05;5.40;;;6.20;79.10;;;;;;5013956;28;20076;-74
2023/12/06 09:13:04;;;;;;;6.70;5.43;;;6.20;79.10;;;;;;5027940;28;20036;-75
2023/12/06 09:15:30;;;;;;;7.38;5.50;;;6.20;79.00;;;;;;5013414;28;20390;-76
2023/12/06 09:17:55;;;;;;;7.30;5.43;;;6.30;79.00;;;;;;5029063;28;20514;-76
2023/12/06 09:20:21;;;;;;;7.90;5.70;;;6.30;79.00;;;;;;5012274;28;20026;-77
2023/12/06 09:22:47;;;;;;;7.53;5.65;;;6.30;79.00;;;;;;5016333;28;20037;-77
2023/12/06 09:25:13;;;;;;;7.85;5.30;;;6.30;79.60;;;;;;5008900;28;20504;-76
2023/12/06 09:27:39;;;;;;;7.32;4.97;;;6.30;79.00;;;;;;5012174;28;20481;-78
2023/12/06 09:30:05;;;;;;;7.90;5.20;;;6.30;78.90;;;;;;5009341;28;20512;-76
2023/12/06 09:32:33;;;;;;;6.70;5.35;;;6.30;78.90;;;;;;5007832;28;20466;-77
2023/12/06 09:34:59;;;;;;;6.90;5.63;;;6.40;78.90;;;;;;5024196;28;20033;-76
2023/12/06 09:37:25;;;;;;;6.70;5.35;;;6.40;79.00;;;;;;5012254;28;20113;-76
2023/12/06 09:39:50;;;;;;;6.97;5.18;;;6.40;79.00;;;;;;5013455;28;20529;-76
2023/12/06 09:42:16;;;;;;;6.40;5.38;;;6.40;79.00;;;;;;5018576;28;20025;-76
2023/12/06 09:44:42;;;;;;;6.95;5.20;;;6.40;79.00;;;;;;5033236;28;20064;-76
2023/12/06 09:47:08;;;;;;;6.88;5.10;;;6.40;79.00;;;;;;4995977;28;20490;-76
2023/12/06 09:49:34;;;;;;;7.28;5.53;;;6.40;78.90;;;;;;5022549;28;20041;-77
2023/12/06 09:52:10;;;;;;;6.75;4.90;;;6.40;79.00;;;;;;5022248;28;20488;-76
2023/12/06 09:54:41;;;;;;;7.13;5.00;;;6.50;79.00;;;;;;5025383;28;20033;-75
2023/12/06 09:57:07;;;;;;;5.80;4.68;;;6.50;79.00;;;;;;5031153;28;20061;-75
2023/12/06 09:59:32;;;;;;;7.13;5.32;;;6.50;78.90;;;;;;4998985;28;20132;-76
2023/12/06 10:01:58;;;;;;;6.35;4.93;;;6.50;78.90;;;;;;5013961;28;20042;-75
2023/12/06 10:04:24;;;;;;;6.63;5.05;;;6.50;78.80;;;;;;5014583;28;20084;-75
2023/12/06 10:06:51;;;;;;;6.57;4.82;;;6.50;78.90;;;;;;5007558;28;20033;-75
2023/12/06 10:09:16;;;;;;;6.50;5.25;;;6.50;78.80;;;;;;4998443;28;20043;-74
2023/12/06 10:11:42;;;;;;;6.68;5.15;;;6.50;78.80;;;;;;5006989;28;20505;-75
2023/12/06 10:14:18;;;;;;;6.93;5.00;;;6.50;78.90;;;;;;5012118;28;20033;-76
2023/12/06 10:16:48;;;;;;;6.55;5.20;;;6.60;78.90;;;;;;5024130;28;20030;-76
2023/12/06 10:19:21;;;;;;;7.35;5.18;;;6.60;78.80;;;;;;5004274;28;20400;-75
2023/12/06 10:21:51;;;;;;;6.07;4.82;;;6.60;78.80;;;;;;5016817;28;20033;-78
2023/12/06 10:24:17;;;;;;;6.45;5.07;;;6.60;78.80;;;;;;5028919;28;20132;-75
2023/12/06 10:26:42;;;;;;;7.13;5.38;;;6.60;78.80;;;;;;5025507;28;20040;-74
2023/12/06 10:29:08;;;;;;;7.13;5.00;;;6.60;78.80;;;;;;5010197;28;20387;-75
2023/12/06 10:31:45;;;;;;;6.40;4.93;;;6.60;78.80;;;;;;5004076;28;20045;-75
2023/12/06 10:34:12;;;;;;;6.60;5.35;;;6.70;78.90;;;;;;5021529;28;20033;-75
2023/12/06 10:36:39;;;;;;;6.50;5.03;;;6.70;78.80;;;;;;5020930;28;20044;-76
2023/12/06 10:39:10;;;;;;;7.22;5.28;;;6.70;78.90;;;;;;5022346;28;20042;-76
2023/12/06 10:41:41;;;;;;;7.38;5.03;;;6.70;78.90;;;;;;5020691;28;20030;-75
2023/12/06 10:44:09;;;;;;;6.68;4.90;;;6.70;78.90;;;;;;5019627;28;20121;-75
2023/12/06 10:46:37;;;;;;;7.20;5.20;;;6.70;79.50;;;;;;5023065;28;20026;-75
2023/12/06 10:49:04;;;;;;;6.68;4.80;;;6.70;79.00;;;;;;5022586;28;20029;-75
2023/12/06 10:51:30;;;;;;;7.20;5.65;;;6.70;79.00;;;;;;4988251;28;20022;-76
2023/12/06 10:53:59;;;;;;;6.75;5.32;;;6.70;78.90;;;;;;5009547;28;20076;-76
2023/12/06 10:56:28;;;;;;;6.18;5.10;;;6.70;78.90;;;;;;5020499;28;20053;-76
2023/12/06 10:58:56;;;;;;;6.63;5.47;;;6.70;78.90;;;;;;5012577;28;20084;-76
2023/12/06 11:01:24;;;;;;;6.32;4.97;;;6.80;79.00;;;;;;5005174;28;20407;-76
2023/12/06 11:03:52;;;;;;;6.95;5.20;;;6.80;79.00;;;;;;4999111;28;20037;-76
2023/12/06 11:06:50;;;;;;;6.95;5.18;;;6.80;78.90;;;;;;5013012;28;20028;-75
2023/12/06 11:09:42;;;;;;;6.25;4.97;;;6.80;79.00;;;;;;5013048;28;20057;-76
2023/12/06 11:12:47;;;;;;;6.30;4.93;;;6.80;79.00;;;;;;5034411;28;20056;-75
2023/12/06 11:15:26;;;;;;;6.88;5.10;;;6.80;79.00;;;;;;5035217;28;20030;-76
2023/12/06 11:18:18;;;;;;;7.40;5.30;;;6.80;78.90;;;;;;5007539;28;20112;-75
2023/12/06 11:20:43;;;;;;;6.28;4.75;;;6.90;79.00;;;;;;5024125;28;20037;-75
2023/12/06 11:23:10;;;;;;;7.43;5.07;;;6.80;78.90;;;;;;5023845;28;20079;-76
2023/12/06 11:25:43;;;;;;;6.63;5.28;;;6.80;79.00;;;;;;5022986;28;20064;-75
2023/12/06 11:28:14;;;;;;;7.10;5.10;;;6.80;79.00;;;;;;5025470;28;20041;-75
2023/12/06 11:31:07;;;;;;;6.50;5.28;;;6.80;79.00;;;;;;5022134;28;20036;-74
2023/12/06 11:33:34;;;;;;;6.38;4.97;;;6.80;79.10;;;;;;5011610;28;20045;-76
2023/12/06 11:35:59;;;;;;;6.45;4.95;;;6.90;79.00;;;;;;5022574;28;20116;-75
2023/12/06 11:38:36;;;;;;;6.70;4.88;;;6.90;79.70;;;;;;5008939;28;20117;-75
2023/12/06 11:41:04;;;;;;;6.38;4.97;;;6.90;79.10;;;;;;5025134;28;20041;-75
2023/12/06 11:43:38;;;;;;;6.70;5.40;;;6.90;79.10;;;;;;5025814;28;20022;-75
2023/12/06 11:46:06;;;;;;;6.22;4.63;;;6.90;79.10;;;;;;5007644;28;20029;-75
2023/12/06 11:48:40;;;;;;;6.80;4.97;;;6.90;79.10;;;;;;5027093;28;20034;-75
2023/12/06 11:51:06;;;;;;;6.53;4.65;;;6.90;79.10;;;;;;5021468;28;20480;-75
2023/12/06 11:53:39;;;;;;;5.68;4.47;;;6.90;79.10;;;;;;5012240;28;20080;-75
2023/12/06 11:56:08;;;;;;;6.97;5.05;;;6.90;79.10;;;;;;5011846;28;20050;-75
2023/12/06 11:58:35;;;;;;;6.15;4.82;;;6.90;79.10;;;;;;5016711;28;20038;-75
2023/12/06 12:01:04;;;;;;;6.85;5.32;;;7.00;79.10;;;;;;5012131;28;20064;-75
2023/12/06 12:03:35;;;;;;;6.15;4.82;;;7.00;79.10;;;;;;5011561;28;20029;-75
2023/12/06 12:06:01;;;;;;;6.10;4.35;;;7.00;79.10;;;;;;5026995;28;20108;-75
2023/12/06 12:08:28;;;;;;;7.05;5.38;;;7.00;79.00;;;;;;5023936;28;20061;-76
2023/12/06 12:10:55;;;;;;;6.85;5.13;;;7.00;79.10;;;;;;5022102;28;20112;-75
2023/12/06 12:13:23;;;;;;;6.38;4.93;;;7.00;79.00;;;;;;5023839;28;20026;-75
2023/12/06 12:15:53;;;;;;;6.88;5.20;;;7.00;79.10;;;;;;5018881;28;20045;-76
2023/12/06 12:18:20;;;;;;;6.13;5.15;;;7.10;79.20;;;;;;5025012;28;20030;-75
2023/12/06 12:20:46;;;;;;;6.30;5.22;;;7.10;79.10;;;;;;5042861;28;20037;-76
2023/12/06 12:23:12;;;;;;;6.18;4.75;;;7.00;79.10;;;;;;5022159;28;20057;-75
2023/12/06 12:25:49;;;;;;;6.07;4.63;;;7.10;79.10;;;;;;5042916;28;20060;-76
2023/12/06 12:28:19;;;;;;;6.07;4.93;;;7.10;79.20;;;;;;5020656;28;20029;-75
2023/12/06 12:30:46;;;;;;;5.72;4.82;;;7.10;79.10;;;;;;5011104;28;20026;-76
2023/12/06 12:33:16;;;;;;;5.57;4.53;;;7.10;79.10;;;;;;5005968;28;20022;-75
2023/12/06 12:35:43;;;;;;;7.20;4.78;;;7.10;79.10;;;;;;5008399;28;20115;-76
2023/12/06 12:38:09;;;;;;;6.88;4.82;;;7.10;79.10;;;;;;5012475;28;20030;-76
2023/12/06 12:40:35;;;;;;;6.30;4.80;;;7.10;79.00;;;;;;5025155;28;20132;-76
2023/12/06 12:43:02;;;;;;;6.55;4.75;;;7.20;79.10;;;;;;5014306;28;20136;-76
2023/12/06 12:45:28;;;;;;;6.05;4.95;;;7.20;79.10;;;;;;5031573;28;20025;-76
2023/12/06 12:47:55;;;;;;;6.85;5.18;;;7.20;79.10;;;;;;5012893;28;20041;-76
2023/12/06 12:50:22;;;;;;;6.45;4.85;;;7.20;79.00;;;;;;5000318;28;20030;-76